createdAt,value
2019-06-10T00:02:05.867Z,3.90
2019-06-10T00:04:36.039Z,4.23
2019-06-10T00:07:07.207Z,3.80
2019-06-10T00:09:37.077Z,4.03
2019-06-10T00:12:08.119Z,4.13
2019-06-10T00:14:38.456Z,4.17
2019-06-10T00:17:08.093Z,4.10
2019-06-10T00:19:37.598Z,4.43
2019-06-10T00:22:08.402Z,4.10
2019-06-10T00:24:40.790Z,4.43
2019-06-10T00:27:11.861Z,4.33
2019-06-10T00:29:40.994Z,4.80
2019-06-10T00:32:13.109Z,4.33
2019-06-10T00:34:42.060Z,3.77
2019-06-10T00:37:14.581Z,4.40
2019-06-10T00:39:43.168Z,4.33
2019-06-10T00:42:15.112Z,4.60
2019-06-10T00:44:43.768Z,4.33
2019-06-10T00:47:15.091Z,5.00
2019-06-10T00:49:44.476Z,5.07
2019-06-10T00:52:14.154Z,5.40
2019-06-10T00:54:43.856Z,4.57
2019-06-10T00:57:13.839Z,5.50
2019-06-10T00:59:43.383Z,5.63
2019-06-10T01:02:14.453Z,5.30
2019-06-10T01:04:44.842Z,5.57
2019-06-10T01:07:14.839Z,5.23
2019-06-10T01:09:44.962Z,5.27
2019-06-10T01:12:15.006Z,4.97
2019-06-10T01:14:44.680Z,5.17
2019-06-10T01:17:15.463Z,5.17
2019-06-10T01:19:45.347Z,5.50
2019-06-10T01:22:15.909Z,5.63
2019-06-10T01:24:46.059Z,5.23
2019-06-10T01:27:15.569Z,5.53
2019-06-10T01:29:44.975Z,5.70
2019-06-10T01:32:15.084Z,4.90
2019-06-10T01:34:44.629Z,4.37
2019-06-10T01:37:14.742Z,5.93
2019-06-10T01:39:45.636Z,5.80
2019-06-10T01:42:15.889Z,5.70
2019-06-10T01:44:46.212Z,4.60
2019-06-10T01:47:16.143Z,4.50
2019-06-10T01:49:46.955Z,4.63
2019-06-10T01:52:16.978Z,4.73
2019-06-10T01:54:47.570Z,6.00
2019-06-10T01:57:18.309Z,5.50
2019-06-10T01:59:48.011Z,5.97
2019-06-10T02:02:21.123Z,5.60
2019-06-10T02:04:51.714Z,5.70
2019-06-10T02:07:23.092Z,5.70
2019-06-10T02:09:52.544Z,5.83
2019-06-10T02:12:24.182Z,6.77
2019-06-10T02:14:53.206Z,5.67
2019-06-10T02:17:23.970Z,6.00
2019-06-10T02:19:54.012Z,6.10
2019-06-10T02:22:24.430Z,7.20
2019-06-10T02:24:54.209Z,6.80
2019-06-10T02:27:23.986Z,6.93
2019-06-10T02:29:53.479Z,6.87
2019-06-10T02:32:31.991Z,6.70
2019-06-10T02:35:07.751Z,6.80
2019-06-10T02:37:32.646Z,7.23
2019-06-10T02:39:56.731Z,7.87
2019-06-10T02:42:30.711Z,6.80
2019-06-10T02:44:59.044Z,7.10
2019-06-10T02:47:36.333Z,6.97
2019-06-10T02:50:07.015Z,6.90
2019-06-10T02:52:34.316Z,7.00
2019-06-10T02:55:04.316Z,7.57
2019-06-10T02:57:39.747Z,7.40
2019-06-10T03:00:20.691Z,7.63
2019-06-10T03:02:45.193Z,7.83
2019-06-10T03:05:17.044Z,8.50
2019-06-10T03:07:45.738Z,7.80
2019-06-10T03:10:16.410Z,7.80
2019-06-10T03:12:46.626Z,8.60
2019-06-10T03:15:16.216Z,8.53
2019-06-10T03:17:45.625Z,8.03
2019-06-10T03:20:15.995Z,8.97
2019-06-10T03:22:45.558Z,9.07
2019-06-10T03:25:16.358Z,8.43
2019-06-10T03:27:45.881Z,8.27
2019-06-10T03:30:23.710Z,8.37
2019-06-10T03:32:47.724Z,8.37
2019-06-10T03:35:17.506Z,7.93
2019-06-10T03:37:47.264Z,8.53
2019-06-10T03:40:18.494Z,8.40
2019-06-10T03:42:48.553Z,8.33
2019-06-10T03:45:19.526Z,9.07
2019-06-10T03:47:48.954Z,8.40
2019-06-10T03:50:19.239Z,8.27
2019-06-10T03:52:48.913Z,8.60
2019-06-10T03:55:19.316Z,9.13
2019-06-10T03:57:48.945Z,9.80
2019-06-10T04:00:19.822Z,10.17
2019-06-10T04:02:49.572Z,10.07
2019-06-10T04:05:19.457Z,9.03
2019-06-10T04:07:49.174Z,9.10
2019-06-10T04:10:19.560Z,8.63
2019-06-10T04:12:49.197Z,8.97
2019-06-10T04:15:19.728Z,9.30
2019-06-10T04:17:49.378Z,9.47
2019-06-10T04:20:19.753Z,9.23
2019-06-10T04:22:49.547Z,10.13
2019-06-10T04:25:19.910Z,9.33
2019-06-10T04:27:49.650Z,9.50
2019-06-10T04:30:23.201Z,9.27
2019-06-10T04:32:52.939Z,8.63
2019-06-10T04:35:24.389Z,10.03
2019-06-10T04:37:53.937Z,9.63
2019-06-10T04:40:26.288Z,7.90
2019-06-10T04:42:54.948Z,9.17
2019-06-10T04:45:26.236Z,9.33
2019-06-10T04:47:55.541Z,10.53
2019-06-10T04:50:35.420Z,11.50
2019-06-10T04:52:56.176Z,11.03
2019-06-10T04:55:26.542Z,11.47
2019-06-10T04:57:56.872Z,11.10
2019-06-10T05:00:27.619Z,11.37
2019-06-10T05:02:58.239Z,9.97
2019-06-10T05:05:28.854Z,10.23
2019-06-10T05:07:58.919Z,9.83
2019-06-10T05:10:29.827Z,8.70
2019-06-10T05:12:59.461Z,10.30
2019-06-10T05:15:31.530Z,10.53
2019-06-10T05:18:00.134Z,10.63
2019-06-10T05:20:48.523Z,11.70
2019-06-10T05:23:02.305Z,10.60
2019-06-10T05:25:32.746Z,10.80
2019-06-10T05:28:02.925Z,10.60
2019-06-10T05:30:34.096Z,9.77
2019-06-10T05:33:03.744Z,9.33
2019-06-10T05:35:33.949Z,9.10
2019-06-10T05:38:03.615Z,8.83
2019-06-10T05:40:34.259Z,10.33
2019-06-10T05:43:03.993Z,9.67
2019-06-10T05:45:35.159Z,9.57
2019-06-10T05:48:04.697Z,9.20
2019-06-10T05:50:34.995Z,9.60
2019-06-10T05:53:04.694Z,9.17
2019-06-10T05:55:35.838Z,10.47
2019-06-10T05:58:05.291Z,8.80
2019-06-10T06:00:35.540Z,8.40
2019-06-10T06:03:05.307Z,8.53
2019-06-10T06:05:36.156Z,7.97
2019-06-10T06:08:08.723Z,8.17
2019-06-10T06:10:37.817Z,7.83
2019-06-10T06:13:07.528Z,8.43
2019-06-10T06:15:38.085Z,8.50
2019-06-10T06:18:10.835Z,7.93
2019-06-10T06:20:39.279Z,9.30
2019-06-10T06:23:09.230Z,9.37
2019-06-10T06:25:42.992Z,8.93
2019-06-10T06:28:12.421Z,9.23
2019-06-10T06:30:42.308Z,9.30
2019-06-10T06:33:13.598Z,8.00
2019-06-10T06:35:46.590Z,8.07
2019-06-10T06:38:14.908Z,7.93
2019-06-10T06:40:44.409Z,8.30
2019-06-10T06:43:13.866Z,8.80
2019-06-10T06:45:43.607Z,7.93
2019-06-10T06:48:13.094Z,7.67
2019-06-10T06:51:00.233Z,8.30
2019-06-10T06:53:27.152Z,6.83
2019-06-10T06:55:45.248Z,7.40
2019-06-10T06:58:14.654Z,7.00
2019-06-10T07:01:00.577Z,6.77
2019-06-10T07:03:15.233Z,6.90
2019-06-10T07:05:46.299Z,6.70
2019-06-10T07:08:17.585Z,6.90
2019-06-10T07:10:47.714Z,7.17
2019-06-10T07:13:17.266Z,6.07
2019-06-10T07:15:47.961Z,6.30
2019-06-10T07:18:17.483Z,6.03
2019-06-10T07:20:46.997Z,6.17
2019-06-10T07:23:16.498Z,5.50
2019-06-10T07:25:47.466Z,5.57
2019-06-10T07:28:17.275Z,5.37
2019-06-10T07:30:51.770Z,5.13
2019-06-10T07:33:17.955Z,4.97
2019-06-10T07:35:47.436Z,5.83
2019-06-10T07:38:16.901Z,5.33
2019-06-10T07:40:46.397Z,5.10
2019-06-10T07:43:15.808Z,5.13
2019-06-10T07:45:47.909Z,5.07
2019-06-10T07:48:16.679Z,5.07
2019-06-10T07:50:46.617Z,5.00
2019-06-10T07:53:16.101Z,4.97
2019-06-10T07:55:46.571Z,5.40
2019-06-10T07:58:16.444Z,4.97
2019-06-10T08:00:48.367Z,5.60
2019-06-10T08:03:17.089Z,5.00
2019-06-10T08:05:46.783Z,5.23
2019-06-10T08:08:16.408Z,6.07
2019-06-10T08:10:46.337Z,6.50
2019-06-10T08:13:17.385Z,5.30
2019-06-10T08:15:48.258Z,5.07
2019-06-10T08:18:17.900Z,5.40
2019-06-10T08:20:48.106Z,5.43
2019-06-10T08:23:23.322Z,5.50
2019-06-10T08:25:56.886Z,5.30
2019-06-10T08:28:23.649Z,5.80
2019-06-10T08:30:53.398Z,5.27
2019-06-10T08:33:23.155Z,6.23
2019-06-10T08:35:59.499Z,6.10
2019-06-10T08:38:24.010Z,5.70
2019-06-10T08:40:53.562Z,6.10
2019-06-10T08:43:23.079Z,5.03
2019-06-10T08:45:53.045Z,5.57
2019-06-10T08:48:23.037Z,5.73
2019-06-10T08:50:53.877Z,5.57
2019-06-10T08:53:23.306Z,6.30
2019-06-10T08:55:53.806Z,5.70
2019-06-10T08:58:23.407Z,6.07
2019-06-10T09:00:53.807Z,6.13
2019-06-10T09:03:23.780Z,6.23
2019-06-10T09:05:56.241Z,6.23
2019-06-10T09:08:25.867Z,5.87
2019-06-10T09:10:55.701Z,5.50
2019-06-10T09:13:25.416Z,5.47
2019-06-10T09:16:09.675Z,5.90
2019-06-10T09:18:26.045Z,5.30
2019-06-10T09:20:56.253Z,6.27
2019-06-10T09:23:26.368Z,6.67
2019-06-10T09:25:57.528Z,6.30
2019-06-10T09:28:27.260Z,7.13
2019-06-10T09:30:59.422Z,7.33
2019-06-10T09:33:28.273Z,6.50
2019-06-10T09:35:58.140Z,7.23
2019-06-10T09:38:27.920Z,7.73
2019-06-10T09:41:01.655Z,7.93
2019-06-10T09:43:28.680Z,8.00
2019-06-10T09:45:58.751Z,8.30
2019-06-10T09:48:28.267Z,8.47
2019-06-10T09:50:59.114Z,8.27
2019-06-10T09:53:35.007Z,8.20
2019-06-10T09:56:00.297Z,7.90
2019-06-10T09:58:32.684Z,8.27
2019-06-10T10:01:03.243Z,7.97
2019-06-10T10:03:33.352Z,8.33
2019-06-10T10:06:14.534Z,8.90
2019-06-10T10:08:35.330Z,8.40
2019-06-10T10:11:04.913Z,9.03
2019-06-10T10:13:35.273Z,10.10
2019-06-10T10:16:05.691Z,11.20
2019-06-10T10:18:35.407Z,12.00
2019-06-10T10:21:05.357Z,12.77
2019-06-10T10:23:50.082Z,14.90
2019-06-10T10:26:06.096Z,14.90
2019-06-10T10:28:35.886Z,14.43
2019-06-10T10:31:05.302Z,15.10
2019-06-10T10:33:34.735Z,16.27
2019-06-10T10:36:04.213Z,16.80
2019-06-10T10:38:34.844Z,18.10
2019-06-10T10:41:06.691Z,16.23
2019-06-10T10:43:37.809Z,16.03
2019-06-10T10:46:07.424Z,15.97
2019-06-10T10:48:36.933Z,17.03
2019-06-10T10:51:06.507Z,16.90
2019-06-10T10:53:35.947Z,15.20
2019-06-10T10:56:05.838Z,16.23
2019-06-10T10:58:35.298Z,15.90
2019-06-10T11:01:05.283Z,16.50
2019-06-10T11:03:35.012Z,16.27
2019-06-10T11:06:04.525Z,15.37
2019-06-10T11:08:34.049Z,14.70
2019-06-10T11:11:05.247Z,14.87
2019-06-10T11:13:37.894Z,13.67
2019-06-10T11:16:07.707Z,12.03
2019-06-10T11:18:37.206Z,13.07
2019-06-10T11:21:06.692Z,11.20
2019-06-10T11:23:36.303Z,12.50
2019-06-10T11:26:06.078Z,11.87
2019-06-10T11:28:35.588Z,11.27
2019-06-10T11:31:05.890Z,11.07
2019-06-10T11:33:35.387Z,10.93
2019-06-10T11:36:05.211Z,9.23
2019-06-10T11:38:34.658Z,9.17
2019-06-10T11:41:04.665Z,8.87
2019-06-10T11:43:34.182Z,9.93
2019-06-10T11:46:07.517Z,9.80
2019-06-10T11:48:34.980Z,10.47
2019-06-10T11:51:05.028Z,10.47
2019-06-10T11:53:34.954Z,10.27
2019-06-10T11:56:04.836Z,10.07
2019-06-10T11:58:34.242Z,9.27
2019-06-10T12:01:04.150Z,9.57
2019-06-10T12:03:33.843Z,9.60
2019-06-10T12:06:05.258Z,9.60
2019-06-10T12:08:34.514Z,10.43
2019-06-10T12:11:04.010Z,10.90
2019-06-10T12:13:34.645Z,9.90
2019-06-10T12:17:05.145Z,10.43
2019-06-10T12:18:35.578Z,10.90
2019-06-10T12:21:05.181Z,10.80
2019-06-10T12:23:34.652Z,12.90
2019-06-10T12:26:05.183Z,11.90
2019-06-10T12:28:35.131Z,11.40
2019-06-10T12:31:07.332Z,10.87
2019-06-10T12:33:35.855Z,12.47
2019-06-10T12:36:07.197Z,12.07
2019-06-10T12:38:37.051Z,10.93
2019-06-10T12:41:09.715Z,10.23
2019-06-10T12:51:26.540Z,10.20
2019-06-10T12:53:57.327Z,9.77
2019-06-10T12:56:26.926Z,9.60
2019-06-10T13:01:44.783Z,10.17
2019-06-10T13:04:13.940Z,10.57
2019-06-10T13:06:47.510Z,10.57
2019-06-10T13:09:19.274Z,10.20
2019-06-10T13:11:48.745Z,11.00
2019-06-10T13:14:18.508Z,10.70
2019-06-10T13:16:48.079Z,12.47
2019-06-10T13:19:17.513Z,11.80
2019-06-10T13:21:46.944Z,10.63
2019-06-10T13:24:16.484Z,10.57
2019-06-10T13:26:45.905Z,10.43
2019-06-10T13:29:17.670Z,10.90
2019-06-10T13:31:46.493Z,10.17
2019-06-10T13:34:15.924Z,11.50
2019-06-10T13:36:45.381Z,11.87
2019-06-10T13:39:14.878Z,11.63
2019-06-10T13:41:44.351Z,13.47
2019-06-10T13:44:16.598Z,12.10
2019-06-10T13:46:44.925Z,13.60
2019-06-10T13:49:15.481Z,13.27
2019-06-10T13:51:45.262Z,13.90
2019-06-10T13:54:14.726Z,14.47
2019-06-10T13:56:47.549Z,14.57
2019-06-10T13:59:15.506Z,14.97
2019-06-10T14:01:45.300Z,14.93
2019-06-10T14:04:21.435Z,16.00
2019-06-10T14:06:50.368Z,16.50
2019-06-10T14:09:17.501Z,18.00
2019-06-10T14:11:46.990Z,17.27
2019-06-10T14:14:18.025Z,18.47
2019-06-10T14:16:47.557Z,19.13
2019-06-10T14:19:17.015Z,19.67
2019-06-10T14:21:46.429Z,16.97
2019-06-10T14:24:16.428Z,15.50
2019-06-10T14:26:45.932Z,16.50
2019-06-10T14:29:16.870Z,14.00
2019-06-10T14:31:47.747Z,11.80
2019-06-10T14:34:18.713Z,11.33
2019-06-10T14:36:48.820Z,11.17
2019-06-10T14:39:18.248Z,11.03
2019-06-10T14:41:47.713Z,11.73
2019-06-10T14:44:18.008Z,11.57
2019-06-10T14:46:47.723Z,9.40
2019-06-10T14:49:17.145Z,9.87
2019-06-10T14:51:46.566Z,11.10
2019-06-10T14:54:18.158Z,11.17
2019-06-10T14:56:53.662Z,10.03
2019-06-10T14:59:18.422Z,10.80
2019-06-10T15:01:47.928Z,11.90
2019-06-10T15:04:18.296Z,11.43
2019-06-10T15:06:48.752Z,12.40
2019-06-10T15:09:19.788Z,13.23
2019-06-10T15:11:49.411Z,13.80
2019-06-10T15:14:20.297Z,13.63
2019-06-10T15:16:53.158Z,14.40
2019-06-10T15:19:28.001Z,13.90
2019-06-10T15:21:52.505Z,14.73
2019-06-10T15:24:23.763Z,16.77
2019-06-10T15:27:08.405Z,16.70
2019-06-10T15:29:24.235Z,18.30
2019-06-10T15:32:09.275Z,17.57
2019-06-10T15:34:24.927Z,19.07
2019-06-10T15:36:54.361Z,18.53
2019-06-10T15:39:24.276Z,17.27
2019-06-10T15:41:53.908Z,18.50
2019-06-10T15:44:44.178Z,19.50
2019-06-10T15:46:54.702Z,18.33
2019-06-10T15:49:26.104Z,19.40
2019-06-10T15:51:55.278Z,18.70
2019-06-10T15:54:25.483Z,17.90
2019-06-10T15:56:56.590Z,17.47
2019-06-10T15:59:26.371Z,18.97
2019-06-10T16:01:55.786Z,21.67
2019-06-10T16:04:26.465Z,19.93
2019-06-10T16:06:56.459Z,20.00
2019-06-10T16:09:25.874Z,20.70
2019-06-10T16:11:55.395Z,21.50
2019-06-10T16:14:25.471Z,21.90
2019-06-10T16:16:55.215Z,20.83
2019-06-10T16:19:24.641Z,21.50
2019-06-10T16:21:54.069Z,21.87
2019-06-10T16:24:25.900Z,20.97
2019-06-10T16:26:54.656Z,21.00
2019-06-10T16:29:25.815Z,24.87
2019-06-10T16:31:55.399Z,25.50
2019-06-10T16:34:28.851Z,25.47
2019-06-10T16:36:56.285Z,26.30
2019-06-10T16:39:26.865Z,27.33
2019-06-10T16:41:56.527Z,26.83
2019-06-10T16:44:28.140Z,27.23
2019-06-10T16:46:57.399Z,26.87
2019-06-10T16:49:26.961Z,27.97
2019-06-10T16:51:56.802Z,25.77
2019-06-10T16:54:27.138Z,24.63
2019-06-10T16:56:56.798Z,23.13
2019-06-10T16:59:27.605Z,24.03
2019-06-10T17:01:57.497Z,23.70
2019-06-10T17:04:27.888Z,24.33
2019-06-10T17:06:57.603Z,24.17
2019-06-10T17:09:27.894Z,23.27
2019-06-10T17:11:58.619Z,24.50
2019-06-10T17:14:28.902Z,24.97
2019-06-10T17:16:58.685Z,25.13
2019-06-10T17:19:47.441Z,23.50
2019-06-10T17:22:16.912Z,20.27
2019-06-10T17:24:47.138Z,21.83
2019-06-10T17:27:16.620Z,18.33
2019-06-10T17:29:46.251Z,16.57
2019-06-10T17:32:15.672Z,16.40
2019-06-10T17:34:45.262Z,20.97
2019-06-10T17:37:14.762Z,11.57
2019-06-10T17:39:44.176Z,13.13
2019-06-10T17:42:13.702Z,10.80
2019-06-10T17:44:43.109Z,10.17
2019-06-10T17:47:13.253Z,8.60
2019-06-10T17:49:42.945Z,7.77
2019-06-10T17:52:13.388Z,7.83
2019-06-10T17:54:42.808Z,7.73
2019-06-10T17:57:12.786Z,6.97
2019-06-10T17:59:42.570Z,5.73
2019-06-10T18:02:12.403Z,6.43
2019-06-10T18:04:42.195Z,5.77
2019-06-10T18:07:13.015Z,5.30
2019-06-10T18:09:42.589Z,5.17
2019-06-10T18:12:12.965Z,4.80
2019-06-10T18:14:43.043Z,5.17
2019-06-10T18:17:12.913Z,4.40
2019-06-10T18:19:43.291Z,3.80
2019-06-10T18:22:12.930Z,3.80
2019-06-10T18:24:44.000Z,3.50
2019-06-10T18:27:13.406Z,2.97
2019-06-10T18:29:43.483Z,2.97
2019-06-10T18:32:12.909Z,2.87
2019-06-10T18:34:42.745Z,2.70
2019-06-10T18:37:12.315Z,3.33
2019-06-10T18:39:43.085Z,3.10
2019-06-10T18:42:12.810Z,2.83
2019-06-10T18:44:42.225Z,2.80
2019-06-10T18:47:13.450Z,2.57
2019-06-10T18:49:43.353Z,2.90
2019-06-10T18:52:12.924Z,2.67
2019-06-10T18:54:43.510Z,2.47
2019-06-10T18:57:13.270Z,2.57
2019-06-10T18:59:42.886Z,3.00
2019-06-10T19:02:12.361Z,2.70
2019-06-10T19:04:43.496Z,2.67
2019-06-10T19:07:13.262Z,2.87
2019-06-10T19:09:47.847Z,3.00
2019-06-10T19:12:14.175Z,2.80
2019-06-10T19:14:43.715Z,2.73
2019-06-10T19:17:17.389Z,2.90
2019-06-10T19:19:46.059Z,3.23
2019-06-10T19:22:15.537Z,3.17
2019-06-10T19:24:45.048Z,2.87
2019-06-10T19:27:14.849Z,3.00
2019-06-10T19:29:50.852Z,3.33
2019-06-10T19:32:15.570Z,3.40
2019-06-10T19:34:48.363Z,3.03
2019-06-10T19:37:17.983Z,3.50
2019-06-10T19:39:51.507Z,3.63
2019-06-10T19:42:19.236Z,3.70
2019-06-10T19:44:48.725Z,3.53
2019-06-10T19:47:18.198Z,3.30
2019-06-10T19:49:47.771Z,3.33
2019-06-10T19:52:18.177Z,3.67
2019-06-10T19:54:47.934Z,3.53
2019-06-10T19:57:17.442Z,3.80
2019-06-10T20:00:03.670Z,4.63
2019-06-10T20:02:18.100Z,4.30
2019-06-10T20:04:47.519Z,4.10
2019-06-10T20:07:17.069Z,4.60
2019-06-10T20:09:46.614Z,4.70
2019-06-10T20:12:16.114Z,4.57
2019-06-10T20:14:46.704Z,4.73
2019-06-10T20:17:16.797Z,5.10
2019-06-10T20:19:46.655Z,4.20
2019-06-10T20:22:16.249Z,5.23
2019-06-10T20:24:46.854Z,5.40
2019-06-10T20:27:17.119Z,5.23
2019-06-10T20:29:59.727Z,5.27
2019-06-10T20:32:17.757Z,5.80
2019-06-10T20:34:47.288Z,5.90
2019-06-10T20:37:16.847Z,5.90
2019-06-10T20:39:47.670Z,5.80
2019-06-10T20:42:17.608Z,6.23
2019-06-10T20:44:47.848Z,6.97
2019-06-10T20:47:18.370Z,6.70
2019-06-10T20:49:51.403Z,7.60
2019-06-10T20:52:19.089Z,7.40
2019-06-10T20:54:49.960Z,7.53
2019-06-10T20:57:19.551Z,7.60
2019-06-10T20:59:49.852Z,7.70
2019-06-10T21:02:19.499Z,7.73
2019-06-10T21:04:50.071Z,7.57
2019-06-10T21:07:23.023Z,7.60
2019-06-10T21:09:54.321Z,7.43
2019-06-10T21:12:23.742Z,6.50
2019-06-10T21:14:53.270Z,6.10
2019-06-10T21:17:22.928Z,5.37
2019-06-10T21:19:53.738Z,5.00
2019-06-10T21:22:23.444Z,3.40
2019-06-10T21:24:53.535Z,3.00
2019-06-10T21:27:24.000Z,2.20
2019-06-10T21:29:54.642Z,2.60
2019-06-10T21:32:24.364Z,2.10
2019-06-10T21:34:53.941Z,1.93
2019-06-10T21:37:23.503Z,2.00
2019-06-10T21:39:55.523Z,1.20
2019-06-10T21:42:24.102Z,1.20
2019-06-10T21:44:53.546Z,1.40
2019-06-10T21:47:23.612Z,1.43
2019-06-10T21:49:54.893Z,1.40
2019-06-10T21:52:24.543Z,1.17
2019-06-10T21:54:53.969Z,1.30
2019-06-10T21:57:23.483Z,1.30
2019-06-10T21:59:54.025Z,1.30
2019-06-10T22:02:24.200Z,1.03
2019-06-10T22:04:55.518Z,1.00
2019-06-10T22:07:25.099Z,0.80
2019-06-10T22:09:56.226Z,1.00
2019-06-10T22:12:25.816Z,1.00
2019-06-10T22:14:55.267Z,0.83
2019-06-10T22:17:24.672Z,1.10
2019-06-10T22:19:56.322Z,1.33
2019-06-10T22:22:25.230Z,1.10
2019-06-10T22:24:56.346Z,1.27
2019-06-10T22:27:25.822Z,1.27
2019-06-10T22:29:57.017Z,1.03
2019-06-10T22:32:26.453Z,1.20
2019-06-10T22:34:57.146Z,1.10
2019-06-10T22:37:26.725Z,1.10
2019-06-10T22:39:57.846Z,1.23
2019-06-10T22:42:27.377Z,1.10
2019-06-10T22:44:57.946Z,1.30
2019-06-10T22:47:27.567Z,1.40
2019-06-10T22:49:58.482Z,1.23
2019-06-10T22:52:28.499Z,1.30
2019-06-10T22:54:58.642Z,1.30
2019-06-10T22:57:28.336Z,1.53
2019-06-10T22:59:59.276Z,1.30
2019-06-10T23:02:29.410Z,1.20
2019-06-10T23:05:01.361Z,1.10
2019-06-10T23:07:29.982Z,1.20
2019-06-10T23:09:59.409Z,1.40
2019-06-10T23:12:28.841Z,1.20
2019-06-10T23:14:59.310Z,0.90
2019-06-10T23:17:28.789Z,1.57
2019-06-10T23:19:59.637Z,1.40
2019-06-10T23:22:29.402Z,1.40
2019-06-10T23:25:00.488Z,1.40
2019-06-10T23:27:29.996Z,1.30
2019-06-10T23:30:00.868Z,1.90
2019-06-10T23:32:32.704Z,1.93
2019-06-10T23:35:01.715Z,2.40
2019-06-10T23:37:32.311Z,1.90
2019-06-10T23:40:04.300Z,2.10
2019-06-10T23:42:33.224Z,2.57
2019-06-10T23:45:04.983Z,2.10
2019-06-10T23:47:34.197Z,2.60
2019-06-10T23:50:04.966Z,2.33
2019-06-10T23:52:34.824Z,2.30
2019-06-10T23:55:07.422Z,2.40
2019-06-10T23:57:36.877Z,2.30
